Time;durP1;ratioP1;P1;durP2;ratioP2;P2;SDS_P1;SDS_P2;PMS_P1;PMS_P2;Temp;Humidity;BMP_temperature;BMP_pressure;BME280_temperature;BME280_humidity;BME280_pressure;Samples;Min_cycle;Max_cycle;Signal;HPM_P1;HPM_P2
2023/03/30 00:01:00;;;;;;;3.73;2.50;;;;;;;10.85;39.12;95134.22;5031980;28;20195;-49
2023/03/30 00:03:29;;;;;;;1.93;1.80;;;;;;;10.84;39.30;95126.66;5023936;28;20440;-48
2023/03/30 00:05:56;;;;;;;2.50;2.17;;;;;;;10.86;39.30;95124.78;5012077;28;20196;-48
2023/03/30 00:08:26;;;;;;;2.30;2.10;;;;;;;10.71;39.38;95109.78;5011911;28;20188;-47
2023/03/30 00:10:54;;;;;;;2.70;2.33;;;;;;;10.82;39.35;95123.41;5012542;28;20766;-47
2023/03/30 00:13:21;;;;;;;2.13;1.97;;;;;;;10.84;39.36;95126.66;5011515;28;20188;-49
2023/03/30 00:15:49;;;;;;;2.63;2.23;;;;;;;10.84;39.39;95124.09;5010636;28;20181;-49
2023/03/30 00:18:16;;;;;;;2.00;1.90;;;;;;;10.82;39.39;95119.09;5011605;28;20195;-48
2023/03/30 00:20:44;;;;;;;2.43;2.10;;;;;;;10.82;39.56;95121.66;5011180;28;20652;-48
2023/03/30 00:23:11;;;;;;;5.10;2.40;;;;;;;10.82;39.64;95121.66;5011680;28;20200;-49
2023/03/30 00:25:38;;;;;;;3.43;2.13;;;;;;;10.82;39.51;95124.22;5011351;28;20690;-47
2023/03/30 00:28:05;;;;;;;3.87;2.30;;;;;;;10.81;39.67;95122.63;5011327;28;20189;-48
2023/03/30 00:30:31;;;;;;;2.90;2.20;;;;;;;10.82;39.79;95131.09;5011463;28;20232;-48
2023/03/30 00:32:58;;;;;;;2.87;2.07;;;;;;;10.80;39.89;95132.03;5011526;28;20184;-48
2023/03/30 00:35:29;;;;;;;3.13;2.13;;;;;;;10.76;39.92;95124.75;5010799;28;20185;-49
2023/03/30 00:38:00;;;;;;;2.57;2.37;;;;;;;10.66;39.84;95123.88;5022696;28;20253;-48
2023/03/30 00:40:27;;;;;;;4.20;2.77;;;;;;;10.71;39.94;95132.00;5029092;28;20247;-50
2023/03/30 00:42:58;;;;;;;2.10;1.90;;;;;;;10.76;40.16;95143.47;5030751;28;20261;-51
2023/03/30 00:45:26;;;;;;;2.40;2.20;;;;;;;10.74;40.09;95129.97;5030341;28;20554;-50
2023/03/30 00:48:01;;;;;;;4.77;2.40;;;;;;;10.74;40.17;95126.59;5030743;28;20203;-50
2023/03/30 00:50:34;;;;;;;2.10;1.90;;;;;;;10.74;40.21;95127.41;5011849;28;20770;-55
2023/03/30 00:53:09;;;;;;;2.37;2.17;;;;;;;10.72;40.39;95133.63;5010851;28;20216;-49
2023/03/30 00:55:38;;;;;;;2.43;2.00;;;;;;;10.70;40.41;95136.28;5010831;28;20234;-49
2023/03/30 00:58:08;;;;;;;2.17;1.97;;;;;;;10.70;40.51;95132.91;5010961;28;20691;-49
2023/03/30 01:00:37;;;;;;;3.60;2.07;;;;;;;10.69;40.66;95134.66;5012454;28;20184;-49
2023/03/30 01:03:08;;;;;;;2.50;2.10;;;;;;;10.69;40.80;95133.84;5029161;28;20203;-48
2023/03/30 01:05:37;;;;;;;2.93;2.13;;;;;;;10.66;40.93;95129.00;5029498;28;20667;-49
2023/03/30 01:08:06;;;;;;;2.90;2.60;;;;;;;10.66;40.93;95139.22;5030284;28;20247;-47
2023/03/30 01:10:33;;;;;;;4.60;2.00;;;;;;;10.62;41.06;95125.06;5030446;28;20662;-48
2023/03/30 01:13:00;;;;;;;2.60;2.10;;;;;;;10.64;40.97;95128.31;5030160;28;20188;-49
2023/03/30 01:15:32;;;;;;;3.23;2.40;;;;;;;10.60;41.15;95122.66;5029857;28;20706;-48
2023/03/30 01:18:11;;;;;;;3.40;2.17;;;;;;;10.61;41.31;95123.44;5030174;28;20651;-48
2023/03/30 01:21:22;;;;;;;4.73;2.37;;;;;;;10.60;41.24;95121.84;5030055;28;20191;-48
2023/03/30 01:24:22;;;;;;;2.20;2.00;;;;;;;10.53;41.45;95121.53;5030027;28;20194;-48
2023/03/30 01:26:56;;;;;;;4.43;2.30;;;;;;;10.54;41.42;95121.41;5030232;28;20195;-50
2023/03/30 01:29:38;;;;;;;3.23;2.43;;;;;;;10.54;41.77;95128.28;5030173;28;20194;-47
2023/03/30 01:32:34;;;;;;;2.77;2.33;;;;;;;10.52;41.73;95127.56;5030177;28;20294;-48
2023/03/30 01:35:36;;;;;;;2.20;2.00;;;;;;;10.50;41.96;95137.94;5029709;28;20832;-47
2023/03/30 01:38:46;;;;;;;2.17;1.97;;;;;;;10.47;41.99;95138.19;5018132;28;20681;-48
2023/03/30 01:41:21;;;;;;;3.87;2.20;;;;;;;10.45;42.28;95137.53;4958195;28;20196;-48
2023/03/30 01:43:56;;;;;;;2.33;2.10;;;;;;;10.40;42.27;95138.81;4968278;28;20181;-51
2023/03/30 01:46:29;;;;;;;3.40;2.30;;;;;;;10.40;42.42;95146.47;4968534;28;20189;-49
2023/03/30 01:49:03;;;;;;;6.50;2.27;;;;;;;10.22;42.33;95116.34;4968260;28;20281;-50
2023/03/30 01:51:40;;;;;;;2.77;2.30;;;;;;;10.18;42.58;95121.81;4968474;28;20228;-49
2023/03/30 01:54:10;;;;;;;2.97;2.20;;;;;;;10.33;42.72;95145.38;4968082;28;20614;-47
2023/03/30 01:56:44;;;;;;;4.80;2.20;;;;;;;10.29;42.88;95144.81;4967763;28;20640;-49
2023/03/30 01:59:16;;;;;;;2.60;2.40;;;;;;;10.21;43.04;95135.16;4968247;28;20673;-48
2023/03/30 02:01:48;;;;;;;2.50;2.10;;;;;;;10.25;42.90;95143.44;4968595;28;20217;-48
2023/03/30 02:04:19;;;;;;;2.60;2.40;;;;;;;10.24;43.20;95146.91;4967703;28;20205;-47
2023/03/30 02:06:53;;;;;;;3.70;2.47;;;;;;;10.23;43.31;95145.25;4967909;28;20268;-47
2023/03/30 02:09:24;;;;;;;2.23;2.10;;;;;;;10.23;43.47;95155.50;4967971;28;20197;-48
2023/03/30 02:11:54;;;;;;;2.37;2.17;;;;;;;10.19;43.32;95142.16;4967449;28;20217;-49
2023/03/30 02:14:24;;;;;;;4.47;2.63;;;;;;;10.20;43.55;95143.78;4967893;28;20716;-48
2023/03/30 02:16:56;;;;;;;2.90;2.00;;;;;;;10.20;43.52;95148.91;4973997;28;20688;-48
2023/03/30 02:19:23;;;;;;;2.57;2.03;;;;;;;10.09;43.72;95138.72;5028258;28;20187;-47
2023/03/30 02:21:50;;;;;;;4.20;2.30;;;;;;;10.18;43.65;95150.75;5028236;28;20345;-49
2023/03/30 02:24:21;;;;;;;2.07;1.97;;;;;;;10.18;43.67;95150.75;5028528;28;20196;-49
2023/03/30 02:26:51;;;;;;;2.70;2.07;;;;;;;10.11;43.81;95133.50;5008988;28;20200;-48
2023/03/30 02:29:21;;;;;;;2.70;2.33;;;;;;;9.99;43.65;95112.28;5018543;28;20192;-49
2023/03/30 02:31:50;;;;;;;3.90;2.40;;;;;;;10.16;43.74;95149.28;5009210;28;20315;-48
2023/03/30 02:34:27;;;;;;;1.87;1.70;;;;;;;10.14;43.74;95151.94;5008784;28;20219;-49
2023/03/30 02:37:23;;;;;;;2.97;2.40;;;;;;;10.15;43.97;95147.66;5011441;28;20670;-48
2023/03/30 02:40:00;;;;;;;4.33;2.27;;;;;;;10.12;43.79;95148.69;4938666;29;20198;-49
2023/03/30 02:42:58;;;;;;;3.30;2.60;;;;;;;10.15;44.12;95152.75;4948167;29;20301;-47
2023/03/30 02:45:37;;;;;;;2.20;2.00;;;;;;;10.01;44.00;95141.88;4937196;29;20222;-48
2023/03/30 02:48:19;;;;;;;2.60;2.40;;;;;;;10.14;44.30;95162.16;4947917;29;20202;-49
2023/03/30 02:50:55;;;;;;;3.43;2.20;;;;;;;10.16;44.46;95157.75;4941072;29;20834;-51
2023/03/30 02:53:31;;;;;;;2.57;2.17;;;;;;;10.17;44.38;95158.56;4929083;29;20250;-49
2023/03/30 02:56:02;;;;;;;2.43;2.23;;;;;;;10.18;44.52;95167.84;4928760;29;20368;-49
2023/03/30 02:58:37;;;;;;;2.30;2.13;;;;;;;10.19;44.65;95159.22;4929058;29;20784;-49
2023/03/30 03:01:13;;;;;;;2.40;2.20;;;;;;;10.17;44.61;95161.09;4932395;29;20205;-49
2023/03/30 03:03:43;;;;;;;4.40;2.63;;;;;;;10.20;44.79;95168.53;4929432;29;20202;-47
2023/03/30 03:06:13;;;;;;;2.13;1.93;;;;;;;10.20;44.87;95168.53;4928803;29;20270;-47
2023/03/30 03:08:42;;;;;;;3.00;2.10;;;;;;;10.19;44.82;95162.63;4928841;29;20190;-50
2023/03/30 03:11:10;;;;;;;2.60;1.90;;;;;;;10.19;44.90;95169.44;4929344;29;20726;-47
2023/03/30 03:13:38;;;;;;;2.50;2.30;;;;;;;10.22;44.97;95172.56;4946216;29;20269;-49
2023/03/30 03:16:10;;;;;;;2.60;2.40;;;;;;;10.23;45.02;95163.16;4967841;28;20682;-52
2023/03/30 03:18:39;;;;;;;2.40;2.20;;;;;;;10.23;45.04;95176.78;5027862;28;20215;-49
2023/03/30 03:21:06;;;;;;;3.30;2.60;;;;;;;10.10;45.39;95153.09;5026427;28;20180;-53
2023/03/30 03:23:33;;;;;;;3.33;2.43;;;;;;;10.23;45.40;95171.66;5028630;28;20227;-48
2023/03/30 03:26:00;;;;;;;2.50;2.30;;;;;;;10.22;45.54;95175.13;5028176;28;20203;-51
2023/03/30 03:28:26;;;;;;;2.97;2.40;;;;;;;10.25;45.59;95176.66;5028435;28;20187;-48
2023/03/30 03:30:54;;;;;;;3.00;2.27;;;;;;;10.25;45.69;95182.59;5028002;28;20184;-48
2023/03/30 03:33:22;;;;;;;2.50;2.30;;;;;;;10.22;45.71;95166.66;5029674;28;20258;-48
2023/03/30 03:35:52;;;;;;;2.20;2.00;;;;;;;10.24;45.69;95175.03;5032286;28;20246;-52
2023/03/30 03:38:20;;;;;;;3.80;2.40;;;;;;;10.24;45.77;95167.34;5018332;28;20198;-49
2023/03/30 03:40:50;;;;;;;3.43;2.23;;;;;;;10.26;45.94;95170.63;5012550;28;20310;-51
2023/03/30 03:43:17;;;;;;;2.50;2.30;;;;;;;10.26;45.91;95175.72;5020539;28;20250;-48
2023/03/30 03:45:45;;;;;;;2.57;2.37;;;;;;;10.21;45.96;95170.97;5031802;28;20206;-50
2023/03/30 03:48:12;;;;;;;2.50;2.30;;;;;;;10.27;45.99;95185.00;5031517;28;20269;-52
2023/03/30 03:50:41;;;;;;;2.33;2.13;;;;;;;10.25;46.11;95184.34;5031510;28;20188;-50
2023/03/30 03:53:08;;;;;;;2.50;2.20;;;;;;;10.26;46.18;95184.19;5029259;28;20257;-49
2023/03/30 03:55:35;;;;;;;3.53;2.37;;;;;;;10.24;46.37;95187.81;5024130;28;20192;-50
2023/03/30 03:58:02;;;;;;;2.30;2.10;;;;;;;10.27;46.34;95192.69;5031631;28;20227;-49
2023/03/30 04:00:29;;;;;;;3.50;2.67;;;;;;;10.28;46.49;95196.88;5031983;28;20298;-49
2023/03/30 04:02:56;;;;;;;2.80;2.40;;;;;;;10.28;46.38;95196.88;5030980;28;20194;-49
2023/03/30 04:05:22;;;;;;;2.43;2.23;;;;;;;10.29;46.52;95195.94;5016581;28;20200;-49
2023/03/30 04:07:52;;;;;;;3.40;2.30;;;;;;;10.30;46.55;95197.56;5011812;28;20560;-49
2023/03/30 04:10:20;;;;;;;3.00;2.47;;;;;;;10.28;46.59;95187.47;5011712;28;20246;-49
2023/03/30 04:12:46;;;;;;;4.97;2.40;;;;;;;10.30;46.61;95192.44;5011681;28;20212;-48
2023/03/30 04:15:13;;;;;;;2.77;2.37;;;;;;;10.24;46.59;95182.69;5013086;28;20188;-49
2023/03/30 04:17:40;;;;;;;2.50;2.30;;;;;;;10.33;46.76;95191.41;5029860;28;20877;-49
2023/03/30 04:20:10;;;;;;;5.97;2.83;;;;;;;10.35;46.45;95184.41;5030167;28;20251;-48
2023/03/30 04:22:40;;;;;;;4.17;3.20;;;;;;;10.37;46.78;95190.22;5014369;28;20250;-50
2023/03/30 04:25:10;;;;;;;3.40;2.33;;;;;;;10.36;46.75;95186.00;5012783;28;20223;-49
2023/03/30 04:27:37;;;;;;;2.40;2.20;;;;;;;10.38;46.73;95187.53;5019186;28;20187;-51
2023/03/30 04:30:04;;;;;;;3.93;2.67;;;;;;;10.40;46.83;95189.94;5014777;28;20196;-49
2023/03/30 04:32:33;;;;;;;3.77;2.60;;;;;;;10.38;46.69;95195.19;5011506;28;21017;-50
2023/03/30 04:35:00;;;;;;;2.80;2.33;;;;;;;10.41;46.83;95194.16;5011388;28;20258;-51
2023/03/30 04:37:30;;;;;;;2.87;2.63;;;;;;;10.41;46.87;95194.16;5018271;28;20576;-50
2023/03/30 04:39:57;;;;;;;3.17;2.47;;;;;;;10.42;46.99;95195.75;5030510;28;20234;-49
2023/03/30 04:42:29;;;;;;;3.57;2.30;;;;;;;10.43;47.17;95195.63;5031314;28;20314;-49
2023/03/30 04:44:57;;;;;;;2.93;2.70;;;;;;;10.41;47.11;95189.84;5028133;28;20191;-50
2023/03/30 04:47:23;;;;;;;4.90;2.57;;;;;;;10.42;47.22;95199.13;5030244;28;20188;-48
2023/03/30 04:49:50;;;;;;;3.03;2.73;;;;;;;10.45;47.09;95203.19;5011286;28;20188;-49
2023/03/30 04:52:17;;;;;;;4.17;2.80;;;;;;;10.45;47.11;95191.22;5011365;28;20635;-49
2023/03/30 04:54:44;;;;;;;3.40;2.50;;;;;;;10.47;47.11;95198.75;5010846;28;20224;-48
2023/03/30 04:57:12;;;;;;;2.93;2.73;;;;;;;10.48;47.13;95190.94;5015199;28;20195;-48
2023/03/30 04:59:41;;;;;;;3.30;3.00;;;;;;;10.51;47.02;95193.25;5031647;28;20321;-48
2023/03/30 05:02:08;;;;;;;3.97;3.10;;;;;;;10.57;47.16;95198.81;5031452;28;20187;-51
2023/03/30 05:04:35;;;;;;;4.67;2.90;;;;;;;10.68;47.75;95199.56;5024957;28;20202;-52
2023/03/30 05:07:02;;;;;;;3.87;3.13;;;;;;;10.83;48.53;95196.66;5024586;28;20536;-50
2023/03/30 05:09:29;;;;;;;3.83;2.97;;;;;;;10.92;49.48;95191.59;5021312;28;20907;-50
2023/03/30 05:11:56;;;;;;;4.30;3.30;;;;;;;11.08;50.30;95198.81;5021095;28;20715;-52
2023/03/30 05:14:23;;;;;;;4.83;3.73;;;;;;;11.19;50.51;95197.94;5013722;28;20223;-52
2023/03/30 05:16:51;;;;;;;15.70;3.03;;;;;;;11.28;50.84;95197.97;5016326;28;20201;-53
2023/03/30 05:19:18;;;;;;;3.53;2.83;;;;;;;11.39;50.67;95193.66;5020824;28;20200;-50
2023/03/30 05:21:45;;;;;;;4.13;2.90;;;;;;;11.48;50.84;95198.81;5014698;28;20203;-52
2023/03/30 05:24:12;;;;;;;3.23;2.70;;;;;;;11.58;50.76;95200.63;5019353;28;20189;-47
2023/03/30 05:26:39;;;;;;;3.77;2.50;;;;;;;11.65;51.15;95197.38;5019771;28;20244;-49
2023/03/30 05:29:06;;;;;;;4.73;2.70;;;;;;;11.68;52.29;95194.56;5025551;28;20188;-50
2023/03/30 05:31:33;;;;;;;4.10;3.17;;;;;;;11.69;53.79;95198.72;5025738;28;20568;-52
2023/03/30 05:34:01;;;;;;;2.63;2.43;;;;;;;11.70;54.03;95195.25;5018497;28;20388;-49
2023/03/30 05:36:28;;;;;;;3.63;2.60;;;;;;;11.73;54.10;95192.41;5023852;28;20644;-49
2023/03/30 05:38:55;;;;;;;2.87;2.67;;;;;;;11.78;53.94;95195.38;5019657;28;20220;-49
2023/03/30 05:41:22;;;;;;;6.67;3.23;;;;;;;11.80;53.20;95196.06;5017379;28;20561;-48
2023/03/30 05:43:48;;;;;;;4.43;2.60;;;;;;;11.84;52.62;95191.53;5019068;28;20291;-48
2023/03/30 05:46:15;;;;;;;4.40;2.50;;;;;;;11.92;52.54;95199.34;5020736;28;20261;-48
2023/03/30 05:48:42;;;;;;;3.30;2.23;;;;;;;11.96;52.15;95205.84;5022987;28;20568;-48
2023/03/30 05:51:10;;;;;;;4.23;2.80;;;;;;;11.97;51.77;95202.31;5019063;28;20216;-50
2023/03/30 05:53:37;;;;;;;4.40;2.40;;;;;;;11.98;51.41;95198.00;5026835;28;20246;-50
2023/03/30 05:56:06;;;;;;;3.40;3.10;;;;;;;11.99;51.14;95202.19;5017802;28;20626;-48
2023/03/30 05:58:32;;;;;;;4.87;3.10;;;;;;;12.05;51.10;95206.78;5023227;28;20195;-47
2023/03/30 06:00:59;;;;;;;4.30;2.87;;;;;;;11.91;50.70;95182.34;5021094;28;20193;-48
2023/03/30 06:03:26;;;;;;;4.37;3.13;;;;;;;12.11;50.73;95208.00;5025334;28;20210;-48
2023/03/30 06:05:53;;;;;;;7.27;3.33;;;;;;;12.12;50.26;95212.19;5031369;28;20202;-48
2023/03/30 06:08:22;;;;;;;6.77;3.97;;;;;;;12.11;50.12;95208.81;5025693;28;20271;-47
2023/03/30 06:10:52;;;;;;;3.77;2.57;;;;;;;12.31;64.02;95222.47;5024291;28;20195;-48
2023/03/30 06:13:19;;;;;;;3.57;3.00;;;;;;;12.72;62.58;95230.78;5014992;28;20212;-48
2023/03/30 06:15:46;;;;;;;8.20;3.83;;;;;;;12.85;59.29;95230.50;5014475;28;20279;-47
2023/03/30 06:18:13;;;;;;;5.70;2.83;;;;;;;12.93;57.95;95236.56;5022492;28;20207;-48
2023/03/30 06:20:40;;;;;;;7.47;3.27;;;;;;;12.94;57.49;95237.34;5019742;28;20674;-48
2023/03/30 06:23:07;;;;;;;5.10;3.20;;;;;;;12.92;56.58;95234.13;5018965;28;20204;-50
2023/03/30 06:25:35;;;;;;;10.47;3.53;;;;;;;12.89;56.13;95237.78;5023028;28;20214;-51
2023/03/30 06:28:03;;;;;;;5.73;3.53;;;;;;;12.83;55.56;95248.59;5014753;28;20292;-48
2023/03/30 06:30:29;;;;;;;10.30;3.00;;;;;;;12.75;55.37;95248.47;5021724;28;20267;-47
2023/03/30 06:32:56;;;;;;;16.43;4.00;;;;;;;12.63;54.59;95237.53;5021778;28;20231;-48
2023/03/30 06:35:23;;;;;;;5.93;3.60;;;;;;;12.54;54.28;95235.81;5024392;28;20199;-47
2023/03/30 06:37:50;;;;;;;4.33;3.63;;;;;;;12.61;54.18;95248.88;5024306;28;20690;-48
2023/03/30 06:40:17;;;;;;;6.70;3.37;;;;;;;12.57;53.81;95250.94;5014726;28;20668;-47
2023/03/30 06:42:46;;;;;;;3.73;3.33;;;;;;;12.57;53.66;95245.00;5026084;28;20199;-48
2023/03/30 06:45:13;;;;;;;7.63;3.63;;;;;;;12.59;53.31;95248.22;5017745;28;20211;-48
2023/03/30 06:47:41;;;;;;;5.30;3.70;;;;;;;12.61;53.19;95248.88;5021713;28;20184;-47
2023/03/30 06:50:08;;;;;;;10.57;4.10;;;;;;;12.68;52.64;95255.91;5023687;28;20219;-49
2023/03/30 06:52:35;;;;;;;4.73;3.33;;;;;;;12.74;52.39;95257.13;5015930;28;20226;-49
2023/03/30 06:55:02;;;;;;;7.30;4.17;;;;;;;12.62;52.04;95224.88;5007720;28;20196;-49
2023/03/30 06:57:29;;;;;;;5.83;3.53;;;;;;;12.83;51.96;95261.44;5016670;28;20240;-47
2023/03/30 06:59:57;;;;;;;6.77;4.33;;;;;;;12.86;51.60;95252.63;5019661;28;20256;-47
2023/03/30 07:02:25;;;;;;;5.33;4.17;;;;;;;12.90;51.27;95243.72;5014177;28;20203;-47
2023/03/30 07:04:52;;;;;;;8.73;4.03;;;;;;;13.09;51.03;95251.38;5015953;28;20212;-48
2023/03/30 07:07:19;;;;;;;9.60;3.97;;;;;;;13.22;50.78;95249.34;5016948;28;20204;-46
2023/03/30 07:09:46;;;;;;;6.10;3.90;;;;;;;13.35;50.56;95253.38;5021207;28;20274;-48
2023/03/30 07:12:13;;;;;;;5.17;4.00;;;;;;;13.23;50.10;95194.47;5014818;28;20443;-47
2023/03/30 07:14:40;;;;;;;4.77;3.93;;;;;;;13.84;49.75;95252.19;5021360;28;20183;-48
2023/03/30 07:17:08;;;;;;;5.17;4.20;;;;;;;14.02;49.37;95257.38;5028683;28;20280;-47
2023/03/30 07:19:35;;;;;;;6.10;4.07;;;;;;;14.18;48.95;95262.69;5021143;28;20195;-49
2023/03/30 07:22:02;;;;;;;4.90;3.43;;;;;;;14.35;48.89;95263.66;5011608;28;20207;-49
2023/03/30 07:24:30;;;;;;;5.60;3.90;;;;;;;14.50;48.55;95272.50;5024839;28;20203;-48
2023/03/30 07:26:57;;;;;;;4.97;3.87;;;;;;;14.58;48.39;95258.09;5019375;28;20188;-50
2023/03/30 07:29:24;;;;;;;6.67;4.23;;;;;;;14.76;48.28;95266.59;5021533;28;20532;-48
2023/03/30 07:31:50;;;;;;;8.67;4.17;;;;;;;14.92;48.12;95273.66;5018327;28;20245;-48
2023/03/30 07:34:19;;;;;;;8.30;4.33;;;;;;;15.09;47.65;95279.72;5012632;28;20216;-48
2023/03/30 07:36:46;;;;;;;5.60;3.83;;;;;;;15.27;47.49;95267.59;5021716;28;20238;-48
2023/03/30 07:39:13;;;;;;;8.57;4.17;;;;;;;15.45;47.31;95260.59;5021330;28;20789;-47
2023/03/30 07:41:40;;;;;;;8.60;5.07;;;;;;;15.63;47.07;95252.81;5014585;28;20197;-48
2023/03/30 07:44:06;;;;;;;9.20;4.30;;;;;;;15.84;47.09;95261.94;5018527;28;20192;-48
2023/03/30 07:46:33;;;;;;;9.27;4.73;;;;;;;16.06;46.58;95251.03;5023120;28;20183;-49
2023/03/30 07:49:00;;;;;;;4.00;3.17;;;;;;;16.37;46.60;95263.38;5012660;28;20258;-48
2023/03/30 07:51:28;;;;;;;7.03;4.17;;;;;;;16.66;46.50;95257.72;5026112;28;20700;-50
2023/03/30 07:53:55;;;;;;;6.60;3.87;;;;;;;16.92;46.13;95255.81;5017007;28;20754;-50
2023/03/30 07:56:22;;;;;;;5.33;3.83;;;;;;;17.15;45.99;95257.75;5017156;28;20196;-47
2023/03/30 07:58:49;;;;;;;5.23;3.80;;;;;;;17.34;45.84;95259.97;5018698;28;20203;-47
2023/03/30 08:01:16;;;;;;;8.83;4.27;;;;;;;17.46;45.62;95257.84;5014444;28;20211;-47
2023/03/30 08:03:44;;;;;;;10.53;4.57;;;;;;;17.66;45.41;95268.59;5012824;28;20204;-50
2023/03/30 08:06:11;;;;;;;6.87;4.23;;;;;;;17.85;45.37;95264.84;5014683;28;20567;-48
2023/03/30 08:08:42;;;;;;;3.40;3.10;;;;;;;18.01;48.55;95239.69;5014951;28;20736;-48
2023/03/30 08:11:10;;;;;;;6.83;3.30;;;;;;;18.35;49.10;95233.38;5019565;28;20184;-47
2023/03/30 08:13:37;;;;;;;6.37;3.40;;;;;;;18.75;48.31;95253.00;5023881;28;20216;-48
2023/03/30 08:16:04;;;;;;;4.30;3.13;;;;;;;18.97;47.60;95260.94;5023951;28;20288;-48
2023/03/30 08:18:31;;;;;;;7.30;3.70;;;;;;;19.02;47.05;95245.66;5020020;28;20221;-50
2023/03/30 08:20:58;;;;;;;8.90;3.93;;;;;;;19.26;46.70;95244.63;5018707;28;20196;-52
2023/03/30 08:23:25;;;;;;;6.03;3.53;;;;;;;19.43;46.09;95246.06;5017134;28;20193;-50
2023/03/30 08:25:56;;;;;;;4.50;3.50;;;;;;;19.56;45.78;95250.63;5017709;28;20262;-48
2023/03/30 08:28:23;;;;;;;7.87;3.57;;;;;;;19.65;45.46;95248.78;5020855;28;20188;-50
2023/03/30 08:30:50;;;;;;;5.43;3.33;;;;;;;19.72;45.08;95250.44;5030560;28;20199;-49
2023/03/30 08:33:17;;;;;;;4.00;3.47;;;;;;;19.77;44.82;95255.94;5025104;28;20220;-49
2023/03/30 08:35:45;;;;;;;4.83;3.53;;;;;;;19.79;44.80;95243.56;5026452;28;20195;-48
2023/03/30 08:38:16;;;;;;;5.53;3.67;;;;;;;19.87;44.46;95247.84;5022674;28;20271;-49
2023/03/30 08:40:44;;;;;;;5.83;3.77;;;;;;;19.97;44.17;95244.97;5021883;28;20574;-48
2023/03/30 08:43:31;;;;;;;5.63;3.67;;;;;;;20.09;43.97;95242.72;5018358;28;20579;-48
2023/03/30 08:46:00;;;;;;;4.80;4.00;;;;;;;20.18;43.65;95249.41;5018096;28;20192;-49
2023/03/30 08:48:31;;;;;;;5.70;3.97;;;;;;;20.28;43.59;95247.31;5021015;28;20286;-49
2023/03/30 08:51:01;;;;;;;5.47;3.80;;;;;;;20.39;43.28;95246.03;5015783;28;20196;-49
2023/03/30 08:53:31;;;;;;;7.57;4.10;;;;;;;20.46;43.11;95233.88;5020102;28;20243;-51
2023/03/30 08:56:04;;;;;;;5.03;3.90;;;;;;;20.56;42.91;95242.22;5016332;28;20184;-50
2023/03/30 08:58:43;;;;;;;9.57;4.37;;;;;;;20.57;42.64;95235.22;5019667;28;20180;-48
2023/03/30 09:01:18;;;;;;;6.93;4.13;;;;;;;20.54;42.68;95237.19;5021013;28;20200;-48
2023/03/30 09:03:59;;;;;;;6.93;3.70;;;;;;;20.43;42.61;95216.09;5014322;28;20206;-49
2023/03/30 09:06:37;;;;;;;4.90;3.37;;;;;;;20.54;42.56;95239.00;5021886;28;20290;-48
2023/03/30 09:09:05;;;;;;;4.03;3.40;;;;;;;20.56;42.57;95228.44;5022088;28;20187;-47
2023/03/30 09:11:35;;;;;;;5.50;3.73;;;;;;;20.61;42.59;95223.47;5026804;28;20179;-48
2023/03/30 09:14:07;;;;;;;4.77;3.63;;;;;;;20.69;42.28;95221.56;5022724;28;20226;-47
2023/03/30 09:16:38;;;;;;;4.03;3.37;;;;;;;20.82;42.16;95220.84;5025959;28;20228;-49
2023/03/30 09:19:14;;;;;;;5.20;3.43;;;;;;;20.96;41.88;95221.75;5022561;28;20612;-48
2023/03/30 09:21:41;;;;;;;3.43;3.00;;;;;;;21.14;41.54;95213.47;5021388;28;20202;-47
2023/03/30 09:24:14;;;;;;;5.65;3.58;;;;;;;21.38;41.01;95213.06;5024870;28;20596;-48
2023/03/30 09:26:49;;;;;;;4.27;3.60;;;;;;;21.61;40.64;95204.97;5023000;28;20278;-53
2023/03/30 09:29:20;;;;;;;4.50;3.25;;;;;;;21.73;40.54;95203.41;5017730;28;20207;-54
2023/03/30 09:31:50;;;;;;;4.55;3.35;;;;;;;21.73;40.27;95202.63;5018237;28;20250;-54
2023/03/30 09:34:26;;;;;;;4.40;3.10;;;;;;;21.64;40.41;95195.97;5022216;28;20218;-51
2023/03/30 09:36:57;;;;;;;4.05;2.75;;;;;;;21.53;40.37;95200.72;5016539;28;20234;-51
2023/03/30 09:39:25;;;;;;;4.07;2.92;;;;;;;21.40;40.34;95194.66;5022514;28;20204;-49
2023/03/30 09:42:02;;;;;;;5.68;2.90;;;;;;;21.33;40.07;95197.22;5014681;28;20207;-49
2023/03/30 09:44:35;;;;;;;3.58;3.10;;;;;;;21.26;39.90;95184.13;5015654;28;20196;-49
2023/03/30 09:47:09;;;;;;;7.13;3.58;;;;;;;21.19;39.73;95177.28;5015267;28;20193;-48
2023/03/30 09:49:38;;;;;;;2.45;2.25;;;;;;;21.30;39.69;95189.78;5016913;28;20192;-49
2023/03/30 09:52:08;;;;;;;5.05;2.78;;;;;;;21.33;39.43;95186.81;5021897;28;20184;-49
2023/03/30 09:54:37;;;;;;;5.90;2.97;;;;;;;21.39;39.31;95188.66;5019363;28;20626;-49
2023/03/30 09:57:04;;;;;;;8.57;2.85;;;;;;;21.48;39.15;95184.88;5019747;28;20197;-49
2023/03/30 09:59:34;;;;;;;3.90;2.63;;;;;;;21.61;39.04;95193.75;5019228;28;20188;-48
2023/03/30 10:02:18;;;;;;;2.63;2.40;;;;;;;21.69;38.86;95186.59;5017368;28;20196;-48
2023/03/30 10:05:03;;;;;;;4.50;2.63;;;;;;;21.65;38.71;95172.34;5020752;28;20198;-48
2023/03/30 10:07:36;;;;;;;3.23;2.73;;;;;;;21.72;38.96;95180.19;5018873;28;20678;-48
2023/03/30 10:10:14;;;;;;;3.10;2.47;;;;;;;21.69;38.86;95183.97;5008594;28;20193;-49
2023/03/30 10:12:41;;;;;;;2.78;2.35;;;;;;;21.67;38.63;95178.16;5014081;28;20645;-49
2023/03/30 10:15:16;;;;;;;2.45;2.25;;;;;;;21.62;38.66;95175.34;5019422;28;20254;-50
2023/03/30 10:17:46;;;;;;;2.97;2.40;;;;;;;21.61;38.47;95163.31;5018238;28;20290;-50
2023/03/30 10:20:35;;;;;;;2.78;2.30;;;;;;;21.73;38.32;95164.38;5023406;28;20272;-49
2023/03/30 10:23:05;;;;;;;2.50;2.20;;;;;;;21.93;38.22;95174.84;5020168;28;20210;-52
2023/03/30 10:25:33;;;;;;;5.35;2.63;;;;;;;21.96;38.14;95168.44;5025282;28;20198;-51
2023/03/30 10:28:03;;;;;;;3.13;2.42;;;;;;;21.94;38.24;95157.44;5020147;28;20218;-50
2023/03/30 10:30:33;;;;;;;2.30;2.10;;;;;;;21.89;38.42;95159.78;5019403;28;20827;-52
2023/03/30 10:33:02;;;;;;;4.43;2.40;;;;;;;21.86;38.49;95155.00;5024099;28;20221;-49
2023/03/30 10:35:35;;;;;;;2.38;2.17;;;;;;;21.66;38.04;95139.31;5021500;28;20649;-51
2023/03/30 10:38:05;;;;;;;7.07;2.30;;;;;;;21.74;37.99;95152.16;5009077;28;20207;-55
2023/03/30 10:40:35;;;;;;;3.20;2.20;;;;;;;21.71;38.19;95149.94;5026257;28;20198;-52
2023/03/30 10:43:03;;;;;;;3.03;2.58;;;;;;;21.67;37.96;95152.13;5011333;28;20268;-51
2023/03/30 10:45:39;;;;;;;2.70;2.25;;;;;;;21.67;37.77;95151.31;5019565;28;20192;-50
2023/03/30 10:48:30;;;;;;;2.60;2.10;;;;;;;21.68;37.69;95145.13;5022376;28;20192;-49
2023/03/30 10:51:07;;;;;;;2.53;2.20;;;;;;;21.64;37.33;95130.91;5021325;28;20234;-52
2023/03/30 10:53:44;;;;;;;2.75;2.47;;;;;;;21.70;37.61;95138.72;5019164;28;20314;-53
2023/03/30 10:56:24;;;;;;;2.30;2.15;;;;;;;21.70;37.47;95141.31;5020322;28;20490;-50
2023/03/30 10:59:27;;;;;;;3.10;1.90;;;;;;;21.70;37.47;95143.94;5015771;28;20196;-48
2023/03/30 11:02:18;;;;;;;2.22;2.03;;;;;;;21.71;37.45;95129.91;4949197;28;20637;-50
2023/03/30 11:04:49;;;;;;;2.95;2.25;;;;;;;21.71;37.60;95129.91;4957746;28;20340;-51
2023/03/30 11:07:24;;;;;;;3.13;2.17;;;;;;;21.72;37.46;95120.31;4958858;28;20313;-50
2023/03/30 11:09:55;;;;;;;4.97;2.10;;;;;;;21.78;37.45;95115.09;4954356;28;20662;-48
2023/03/30 11:12:26;;;;;;;2.47;2.08;;;;;;;21.93;37.20;95108.91;4961423;28;20201;-48
2023/03/30 11:14:58;;;;;;;1.95;1.77;;;;;;;21.98;36.87;95099.53;4951519;28;21126;-49
2023/03/30 11:17:31;;;;;;;2.60;2.10;;;;;;;22.02;37.08;95103.34;4952092;28;20205;-48
2023/03/30 11:20:19;;;;;;;2.83;1.88;;;;;;;21.98;37.36;95096.94;4956787;28;20202;-49
2023/03/30 11:22:50;;;;;;;2.38;2.17;;;;;;;21.95;36.99;95093.91;4955923;28;20281;-51
2023/03/30 11:25:20;;;;;;;2.20;2.05;;;;;;;21.91;37.05;95093.50;4944996;28;20221;-49
2023/03/30 11:27:54;;;;;;;2.15;2.05;;;;;;;21.88;37.01;95096.50;4951286;28;20202;-49
2023/03/30 11:30:26;;;;;;;1.80;1.70;;;;;;;21.83;37.03;95088.47;4954313;28;20362;-55
2023/03/30 11:32:59;;;;;;;2.42;2.22;;;;;;;21.78;37.00;95089.06;4952743;28;20281;-52
2023/03/30 11:35:34;;;;;;;2.17;1.98;;;;;;;21.72;37.02;95076.84;4958212;28;20621;-49
2023/03/30 11:38:11;;;;;;;2.20;2.10;;;;;;;21.66;37.05;95069.00;4971883;28;20244;-50
2023/03/30 11:40:43;;;;;;;3.22;2.20;;;;;;;21.60;37.07;95067.22;5018381;28;20254;-50
2023/03/30 11:43:11;;;;;;;2.50;1.95;;;;;;;21.65;36.96;95067.41;5017142;28;20192;-49
2023/03/30 11:45:49;;;;;;;2.20;2.00;;;;;;;21.62;36.74;95052.19;5019076;28;20257;-50
2023/03/30 11:48:37;;;;;;;2.90;1.95;;;;;;;21.68;36.54;95054.03;5022327;28;20200;-49
2023/03/30 11:51:16;;;;;;;1.88;1.77;;;;;;;21.60;36.73;95060.19;5009722;28;20195;-55